Time;durP1;ratioP1;P1;durP2;ratioP2;P2;SDS_P1;SDS_P2;PMS_P1;PMS_P2;Temp;Humidity;BMP_temperature;BMP_pressure;BME280_temperature;BME280_humidity;BME280_pressure;Samples;Min_cycle;Max_cycle;Signal;HPM_P1;HPM_P2
2023/09/24 00:00:11;;;;;;;4.93;2.30;;;12.80;99.90;;;;;;5052237;28;20053;-79
2023/09/24 00:02:39;;;;;;;9.02;2.70;;;12.70;99.90;;;;;;5052363;28;20481;-79
2023/09/24 00:05:08;;;;;;;10.52;2.42;;;12.70;99.90;;;;;;5052102;28;20052;-79
2023/09/24 00:07:34;;;;;;;8.27;2.80;;;12.60;99.90;;;;;;5053457;28;20037;-78
2023/09/24 00:10:00;;;;;;;7.68;2.88;;;12.60;99.90;;;;;;5052040;28;20095;-79
2023/09/24 00:12:27;;;;;;;8.07;2.10;;;12.60;99.90;;;;;;5052204;28;20041;-79
2023/09/24 00:14:53;;;;;;;9.68;2.63;;;12.50;99.90;;;;;;5052507;28;20178;-78
2023/09/24 00:17:18;;;;;;;8.32;2.42;;;12.40;99.90;;;;;;5052282;28;20127;-78
2023/09/24 00:19:45;;;;;;;6.80;2.40;;;12.40;99.90;;;;;;5051985;28;20041;-79
2023/09/24 00:22:12;;;;;;;6.82;2.05;;;12.30;99.90;;;;;;5052098;28;20120;-79
2023/09/24 00:24:38;;;;;;;6.50;2.45;;;12.30;99.90;;;;;;5052103;28;20061;-79
2023/09/24 00:27:07;;;;;;;7.35;2.13;;;12.30;99.90;;;;;;5051798;28;20067;-79
2023/09/24 00:29:33;;;;;;;7.03;1.98;;;12.30;99.90;;;;;;5051816;28;20045;-79
2023/09/24 00:31:59;;;;;;;6.88;2.22;;;12.30;99.90;;;;;;5051969;28;20048;-79
2023/09/24 00:34:24;;;;;;;7.80;2.65;;;12.30;99.90;;;;;;5053205;28;20045;-79
2023/09/24 00:36:50;;;;;;;7.03;2.00;;;12.20;99.90;;;;;;5051931;28;20132;-79
2023/09/24 00:39:16;;;;;;;8.32;1.98;;;12.20;99.90;;;;;;5051930;28;20037;-79
2023/09/24 00:41:45;;;;;;;7.63;2.25;;;12.20;99.90;;;;;;5052044;28;20049;-79
2023/09/24 00:44:15;;;;;;;7.90;2.20;;;12.20;99.90;;;;;;5052046;28;20055;-79
2023/09/24 00:46:44;;;;;;;8.60;1.88;;;12.20;99.90;;;;;;5051996;28;20140;-79
2023/09/24 00:49:12;;;;;;;8.43;2.33;;;12.20;99.90;;;;;;5051773;28;20128;-79
2023/09/24 00:51:40;;;;;;;7.50;2.58;;;12.30;99.90;;;;;;5052135;28;20076;-79
2023/09/24 00:54:10;;;;;;;7.68;2.17;;;12.20;99.90;;;;;;5051728;28;20538;-78
2023/09/24 00:56:36;;;;;;;8.07;2.33;;;12.30;99.90;;;;;;5051883;28;20090;-79
2023/09/24 00:59:04;;;;;;;7.13;2.40;;;12.30;99.90;;;;;;5051740;28;20061;-79
2023/09/24 01:01:34;;;;;;;7.15;2.67;;;12.30;99.90;;;;;;5053219;28;20432;-79
2023/09/24 01:04:01;;;;;;;8.30;2.63;;;12.30;99.90;;;;;;5054362;28;20053;-78
2023/09/24 01:06:28;;;;;;;10.40;2.80;;;12.30;99.90;;;;;;5055450;28;20490;-79
2023/09/24 01:08:54;;;;;;;10.50;2.20;;;12.30;99.90;;;;;;5056035;28;20043;-79
2023/09/24 01:11:20;;;;;;;8.48;2.50;;;12.30;99.90;;;;;;5055269;28;20434;-78
2023/09/24 01:13:46;;;;;;;6.95;2.00;;;12.30;99.90;;;;;;5055516;28;20095;-79
2023/09/24 01:16:12;;;;;;;6.80;2.45;;;12.30;99.90;;;;;;5056572;28;20037;-79
2023/09/24 01:18:39;;;;;;;8.43;2.20;;;12.30;99.90;;;;;;5055222;28;20124;-79
2023/09/24 01:21:16;;;;;;;7.15;2.58;;;12.30;99.90;;;;;;5055184;28;20400;-79
2023/09/24 01:23:44;;;;;;;11.00;2.83;;;12.30;99.90;;;;;;5055040;28;20172;-79
2023/09/24 01:26:13;;;;;;;6.15;2.47;;;12.30;99.90;;;;;;5055254;28;20492;-79
2023/09/24 01:28:39;;;;;;;9.18;1.88;;;12.30;99.90;;;;;;5055297;28;20093;-79
2023/09/24 01:31:06;;;;;;;7.03;2.13;;;12.30;99.90;;;;;;5054961;28;20049;-79
2023/09/24 01:33:31;;;;;;;7.80;2.58;;;12.30;99.90;;;;;;5054922;28;20090;-79
2023/09/24 01:35:58;;;;;;;9.60;2.80;;;12.30;99.90;;;;;;5054821;28;20138;-79
2023/09/24 01:38:24;;;;;;;6.72;2.25;;;12.20;99.90;;;;;;5056064;28;20053;-79
2023/09/24 01:40:51;;;;;;;7.82;2.17;;;12.30;99.90;;;;;;5054787;28;20045;-79
2023/09/24 01:43:18;;;;;;;7.45;2.38;;;12.30;99.90;;;;;;5054760;28;20407;-79
2023/09/24 01:45:44;;;;;;;8.13;2.05;;;12.20;99.90;;;;;;5056157;28;20052;-79
2023/09/24 01:48:11;;;;;;;6.22;2.60;;;12.20;99.90;;;;;;5054682;28;20127;-79
2023/09/24 01:50:37;;;;;;;6.05;2.30;;;12.20;99.90;;;;;;5054465;28;20057;-79
2023/09/24 01:53:04;;;;;;;9.30;2.45;;;12.20;99.90;;;;;;5054774;28;20067;-78
2023/09/24 01:55:31;;;;;;;8.65;2.30;;;12.10;99.90;;;;;;5054462;28;20480;-79
2023/09/24 01:57:59;;;;;;;10.05;2.97;;;12.10;99.90;;;;;;5054340;28;20500;-79
2023/09/24 02:00:25;;;;;;;8.55;3.08;;;12.10;99.90;;;;;;5054426;28;20484;-79
2023/09/24 02:03:10;;;;;;;9.70;2.88;;;12.10;99.90;;;;;;5054523;28;20045;-78
2023/09/24 02:05:42;;;;;;;8.35;2.88;;;12.00;99.90;;;;;;5054327;28;20037;-79
2023/09/24 02:08:08;;;;;;;13.45;3.75;;;12.10;99.90;;;;;;5054318;28;20072;-78
2023/09/24 02:10:38;;;;;;;8.70;3.55;;;12.00;99.90;;;;;;5054062;28;20041;-79
2023/09/24 02:13:07;;;;;;;8.30;3.70;;;12.00;99.90;;;;;;5054319;28;20041;-79
2023/09/24 02:15:33;;;;;;;6.88;3.60;;;12.10;99.90;;;;;;5053456;28;20049;-79
2023/09/24 02:18:00;;;;;;;10.88;3.97;;;12.00;99.90;;;;;;5054282;28;20048;-79
2023/09/24 02:20:31;;;;;;;11.20;4.57;;;12.00;99.90;;;;;;5054048;28;20060;-79
2023/09/24 02:23:02;;;;;;;12.32;4.53;;;11.90;99.90;;;;;;5054092;28;20048;-79
2023/09/24 02:25:33;;;;;;;9.18;4.15;;;11.90;99.90;;;;;;5054063;28;20136;-79
2023/09/24 02:27:59;;;;;;;13.35;4.05;;;11.90;99.90;;;;;;5055011;28;20456;-79
2023/09/24 02:30:28;;;;;;;12.05;3.70;;;11.90;99.90;;;;;;5053735;28;20128;-79
2023/09/24 02:32:54;;;;;;;11.05;3.80;;;11.90;99.90;;;;;;5053788;28;20048;-79
2023/09/24 02:35:19;;;;;;;10.65;4.35;;;11.90;99.90;;;;;;5054047;28;20060;-79
2023/09/24 02:37:52;;;;;;;9.57;4.30;;;11.90;99.90;;;;;;5053775;28;20045;-79
2023/09/24 02:40:28;;;;;;;6.32;3.00;;;11.90;99.90;;;;;;5054757;28;20527;-79
2023/09/24 02:42:59;;;;;;;9.07;4.13;;;11.80;99.90;;;;;;5053830;28;20044;-79
2023/09/24 02:45:29;;;;;;;9.05;3.65;;;11.80;99.90;;;;;;5053627;28;20052;-79
2023/09/24 02:47:56;;;;;;;11.95;3.67;;;11.80;99.90;;;;;;5054563;28;20063;-79
2023/09/24 02:50:27;;;;;;;8.65;3.40;;;11.80;99.90;;;;;;5033526;28;20045;-79
2023/09/24 02:53:04;;;;;;;6.93;3.67;;;11.80;99.90;;;;;;5033676;28;20132;-79
2023/09/24 02:55:30;;;;;;;12.32;3.45;;;11.80;99.90;;;;;;5033630;28;20052;-79
2023/09/24 02:57:58;;;;;;;9.07;3.80;;;11.80;99.90;;;;;;5033228;28;20136;-79
2023/09/24 03:00:32;;;;;;;10.27;4.53;;;11.80;99.90;;;;;;5033550;28;20096;-79
2023/09/24 03:02:58;;;;;;;10.00;3.60;;;11.80;99.90;;;;;;5033369;28;20045;-79
2023/09/24 03:05:25;;;;;;;9.82;3.20;;;11.80;99.90;;;;;;5033383;28;20052;-79
2023/09/24 03:07:53;;;;;;;6.65;3.50;;;11.80;99.90;;;;;;5033185;28;20048;-79
2023/09/24 03:10:19;;;;;;;8.27;3.22;;;11.80;99.90;;;;;;5032967;28;20056;-79
2023/09/24 03:12:46;;;;;;;9.23;3.92;;;11.80;99.90;;;;;;5033136;28;20037;-79
2023/09/24 03:15:12;;;;;;;8.38;3.63;;;11.90;99.90;;;;;;5034421;28;20045;-79
2023/09/24 03:17:39;;;;;;;10.68;4.07;;;11.90;99.90;;;;;;5033108;28;20077;-79
2023/09/24 03:20:14;;;;;;;12.70;4.78;;;11.90;99.90;;;;;;5032805;28;20053;-79
2023/09/24 03:22:51;;;;;;;7.63;3.63;;;11.90;99.90;;;;;;5033167;28;20063;-78
2023/09/24 03:25:21;;;;;;;7.55;4.05;;;11.90;99.90;;;;;;5032955;28;20121;-79
2023/09/24 03:27:53;;;;;;;10.32;3.70;;;11.90;99.90;;;;;;5032094;28;20449;-79
2023/09/24 03:30:19;;;;;;;9.48;4.25;;;11.90;99.90;;;;;;5032784;28;20119;-79
2023/09/24 03:32:49;;;;;;;10.90;4.20;;;12.00;99.90;;;;;;5032714;28;20417;-79
2023/09/24 03:35:24;;;;;;;;;;;12.00;99.90;;;;;;5033167;28;20128;-79
2023/09/24 03:37:51;;;;;;;9.47;4.07;;;12.00;99.90;;;;;;5033058;28;20275;-78
2023/09/24 03:40:19;;;;;;;10.52;4.45;;;12.00;99.90;;;;;;5032788;28;20116;-79
2023/09/24 03:42:45;;;;;;;13.50;4.80;;;12.00;99.90;;;;;;5032926;28;20435;-79
2023/09/24 03:45:23;;;;;;;9.85;4.45;;;12.10;99.90;;;;;;5033862;28;20054;-79
2023/09/24 03:47:49;;;;;;;8.30;4.57;;;12.00;99.90;;;;;;5032871;28;20053;-78
2023/09/24 03:50:17;;;;;;;9.70;4.60;;;12.10;99.90;;;;;;5032373;28;20500;-79
2023/09/24 03:52:47;;;;;;;7.97;4.43;;;12.10;99.90;;;;;;5032821;28;20053;-79
2023/09/24 03:55:15;;;;;;;9.32;4.80;;;12.00;99.90;;;;;;5032543;28;20060;-78
2023/09/24 03:57:43;;;;;;;9.35;4.45;;;12.10;99.90;;;;;;5032170;28;20053;-78
2023/09/24 04:00:18;;;;;;;7.72;4.53;;;12.10;99.90;;;;;;5032332;28;20096;-78
2023/09/24 04:02:48;;;;;;;10.70;5.53;;;12.10;99.90;;;;;;5032666;28;20075;-78
2023/09/24 04:05:18;;;;;;;9.02;4.95;;;12.20;99.90;;;;;;5032610;28;20049;-78
2023/09/24 04:07:49;;;;;;;9.77;4.70;;;12.20;99.90;;;;;;5032391;28;20492;-78
2023/09/24 04:10:16;;;;;;;8.52;4.45;;;12.20;99.90;;;;;;5033383;28;20057;-78
2023/09/24 04:12:46;;;;;;;13.52;5.90;;;12.20;99.90;;;;;;5032242;28;20050;-78
2023/09/24 04:15:13;;;;;;;8.90;5.38;;;12.30;99.90;;;;;;5032709;28;20049;-78
2023/09/24 04:17:41;;;;;;;12.20;4.60;;;12.20;99.90;;;;;;5032551;28;20455;-78
2023/09/24 04:20:08;;;;;;;10.75;5.35;;;12.30;99.90;;;;;;5033410;28;20125;-78
2023/09/24 04:22:33;;;;;;;9.60;4.88;;;12.20;99.90;;;;;;5032040;28;20470;-78
2023/09/24 04:24:59;;;;;;;11.73;5.28;;;12.30;99.90;;;;;;5032130;28;20550;-78
2023/09/24 04:27:26;;;;;;;11.57;5.07;;;12.20;99.90;;;;;;5032375;28;20042;-78
2023/09/24 04:29:52;;;;;;;10.30;5.35;;;12.30;99.90;;;;;;5033423;28;20099;-78
2023/09/24 04:32:17;;;;;;;11.25;5.10;;;12.20;99.90;;;;;;5032432;28;20049;-78
2023/09/24 04:34:46;;;;;;;13.25;5.30;;;12.20;99.90;;;;;;5033419;28;20433;-78
2023/09/24 04:37:14;;;;;;;11.95;5.20;;;12.20;99.90;;;;;;5032456;28;20477;-78
2023/09/24 04:39:40;;;;;;;9.95;5.50;;;12.30;99.90;;;;;;5035829;28;20049;-78
2023/09/24 04:42:07;;;;;;;9.68;5.35;;;12.20;99.90;;;;;;5036146;28;20045;-78
2023/09/24 04:44:32;;;;;;;12.43;6.07;;;12.20;99.90;;;;;;5036222;28;20124;-78
2023/09/24 04:46:58;;;;;;;8.45;5.97;;;12.20;99.90;;;;;;5036175;28;20462;-78
2023/09/24 04:49:24;;;;;;;11.90;6.15;;;12.20;99.90;;;;;;5035770;28;20127;-78
2023/09/24 04:51:50;;;;;;;11.43;6.20;;;12.20;99.90;;;;;;5035959;28;20132;-78
2023/09/24 04:54:16;;;;;;;14.82;6.15;;;12.20;99.90;;;;;;5035699;28;20421;-78
2023/09/24 04:56:44;;;;;;;12.13;6.88;;;12.10;99.90;;;;;;5035526;28;20049;-78
2023/09/24 04:59:12;;;;;;;11.30;6.75;;;12.10;99.90;;;;;;5035476;28;20059;-78
2023/09/24 05:01:38;;;;;;;13.93;6.50;;;12.00;99.90;;;;;;5035647;28;20053;-77
2023/09/24 05:04:04;;;;;;;12.85;6.72;;;12.10;99.90;;;;;;5035548;28;20124;-78
2023/09/24 05:06:32;;;;;;;11.70;6.68;;;12.00;99.90;;;;;;5035452;28;20132;-78
2023/09/24 05:08:57;;;;;;;12.43;6.82;;;12.00;99.90;;;;;;5035404;28;20049;-78
2023/09/24 05:11:23;;;;;;;14.02;7.22;;;12.00;99.90;;;;;;5035198;28;20045;-78
2023/09/24 05:13:49;;;;;;;12.48;6.97;;;12.00;99.90;;;;;;5034605;28;20057;-78
2023/09/24 05:16:15;;;;;;;13.60;6.78;;;12.00;99.90;;;;;;5034792;28;20156;-78
2023/09/24 05:18:42;;;;;;;15.30;7.45;;;11.90;99.90;;;;;;5035263;28;20103;-78
2023/09/24 05:21:18;;;;;;;13.60;7.35;;;12.00;99.90;;;;;;5035385;28;20045;-78
2023/09/24 05:23:47;;;;;;;14.18;7.15;;;11.90;99.90;;;;;;5035267;28;20587;-78
2023/09/24 05:26:13;;;;;;;16.85;7.85;;;11.90;99.90;;;;;;5035205;28;20042;-78
2023/09/24 05:28:39;;;;;;;12.13;7.20;;;11.90;99.90;;;;;;5034898;28;20175;-78
2023/09/24 05:31:05;;;;;;;13.77;7.97;;;11.90;99.90;;;;;;5034853;28;20497;-79
2023/09/24 05:33:31;;;;;;;14.07;7.57;;;11.90;99.90;;;;;;5035174;28;20046;-78
2023/09/24 05:35:57;;;;;;;14.23;7.35;;;11.90;99.90;;;;;;5034657;28;20057;-78
2023/09/24 05:38:22;;;;;;;14.07;7.65;;;11.90;99.90;;;;;;5034750;28;20128;-78
2023/09/24 05:40:48;;;;;;;12.32;7.05;;;11.90;99.90;;;;;;5034829;28;20045;-78
2023/09/24 05:43:16;;;;;;;20.27;7.97;;;11.90;99.90;;;;;;5034640;28;20049;-78
2023/09/24 05:45:49;;;;;;;12.15;6.90;;;11.90;99.90;;;;;;5034603;28;20060;-78
2023/09/24 05:48:15;;;;;;;;;;;12.00;99.90;;;;;;5035181;28;20081;-78
2023/09/24 05:50:44;;;;;;;15.40;7.30;;;12.00;99.90;;;;;;5033584;28;19971;-78
2023/09/24 05:53:11;;;;;;;14.65;8.05;;;12.00;99.90;;;;;;5034532;28;20045;-79
2023/09/24 05:55:36;;;;;;;12.43;7.43;;;12.00;99.90;;;;;;5034445;28;20057;-78
2023/09/24 05:58:06;;;;;;;11.68;7.40;;;12.00;99.90;;;;;;5034292;28;20137;-78
2023/09/24 06:00:37;;;;;;;15.15;8.18;;;12.00;99.90;;;;;;5034325;28;20049;-79
2023/09/24 06:03:03;;;;;;;16.33;7.90;;;12.00;99.90;;;;;;5034592;28;20045;-78
2023/09/24 06:05:29;;;;;;;11.38;6.97;;;12.00;99.90;;;;;;5035683;28;20046;-78
2023/09/24 06:07:56;;;;;;;12.77;6.93;;;12.10;99.90;;;;;;5034365;28;20046;-78
2023/09/24 06:10:23;;;;;;;20.17;8.75;;;12.10;99.90;;;;;;5034112;28;20127;-78
2023/09/24 06:12:49;;;;;;;18.38;7.45;;;12.10;99.90;;;;;;5034224;28;20686;-78
2023/09/24 06:15:17;;;;;;;12.82;7.35;;;12.10;99.90;;;;;;5034097;28;20095;-78
2023/09/24 06:17:43;;;;;;;10.30;6.68;;;12.10;99.90;;;;;;5148141;23;20083;-78
2023/09/24 06:20:10;;;;;;;12.10;7.78;;;12.10;99.90;;;;;;5094210;28;20090;-78
2023/09/24 06:22:36;;;;;;;11.65;7.40;;;12.10;99.90;;;;;;5094462;28;20079;-78
2023/09/24 06:25:03;;;;;;;11.02;7.43;;;12.20;99.90;;;;;;5094161;28;20082;-78
2023/09/24 06:27:29;;;;;;;13.38;7.25;;;12.20;99.90;;;;;;5093892;28;20052;-78
2023/09/24 06:29:55;;;;;;;11.65;7.40;;;12.20;99.90;;;;;;5093828;28;20093;-77
2023/09/24 06:32:20;;;;;;;12.68;7.05;;;12.30;99.90;;;;;;5093848;28;20040;-77
2023/09/24 06:34:46;;;;;;;15.90;7.43;;;12.30;99.90;;;;;;5095299;28;20055;-77
2023/09/24 06:37:11;;;;;;;14.95;7.15;;;12.40;99.90;;;;;;5093158;28;20044;-76
2023/09/24 06:39:37;;;;;;;13.07;7.50;;;12.40;99.90;;;;;;5085848;28;20404;-75
2023/09/24 06:42:03;;;;;;;14.05;7.13;;;12.50;99.90;;;;;;5074692;28;20135;-76
2023/09/24 06:44:29;;;;;;;13.18;7.30;;;12.50;99.90;;;;;;5073394;28;20080;-77
2023/09/24 06:46:55;;;;;;;14.98;7.07;;;12.60;99.90;;;;;;5073481;28;20059;-77
2023/09/24 06:49:21;;;;;;;17.30;7.40;;;12.60;99.90;;;;;;5074397;28;20119;-77
2023/09/24 06:51:47;;;;;;;13.93;6.72;;;12.70;99.90;;;;;;5073120;28;20051;-75
2023/09/24 06:54:12;;;;;;;14.50;7.25;;;12.70;99.90;;;;;;5072806;28;20044;-76
2023/09/24 06:56:38;;;;;;;11.85;6.70;;;12.70;99.90;;;;;;5073094;28;20067;-78
2023/09/24 06:59:09;;;;;;;11.88;6.72;;;12.80;99.90;;;;;;5072966;28;20052;-78
2023/09/24 07:01:36;;;;;;;16.05;7.82;;;12.80;99.90;;;;;;5072789;28;20044;-78
2023/09/24 07:04:02;;;;;;;14.52;8.00;;;12.80;99.90;;;;;;5073135;28;20072;-78
2023/09/24 07:06:28;;;;;;;16.17;8.32;;;12.80;99.90;;;;;;5072802;28;20052;-78
2023/09/24 07:08:58;;;;;;;17.33;7.38;;;12.80;99.90;;;;;;5072698;28;20044;-77
2023/09/24 07:11:33;;;;;;;10.88;6.35;;;13.00;99.90;;;;;;5072705;28;20048;-78
2023/09/24 07:13:59;;;;;;;15.73;6.75;;;13.00;99.90;;;;;;5073973;28;20048;-78
2023/09/24 07:16:26;;;;;;;13.57;6.90;;;13.00;99.90;;;;;;5072612;28;20045;-78
2023/09/24 07:18:54;;;;;;;12.57;7.03;;;13.00;99.90;;;;;;5072448;28;20084;-78
2023/09/24 07:21:22;;;;;;;12.32;6.45;;;13.10;99.90;;;;;;5072470;28;20056;-78
2023/09/24 07:23:51;;;;;;;14.25;6.57;;;13.10;99.90;;;;;;5072493;28;20083;-78
2023/09/24 07:26:16;;;;;;;13.27;6.55;;;13.20;99.90;;;;;;5072623;28;20419;-78
2023/09/24 07:28:43;;;;;;;13.98;6.55;;;13.10;99.90;;;;;;5072756;28;20523;-78
2023/09/24 07:31:28;;;;;;;18.90;6.75;;;13.20;99.90;;;;;;5072206;28;20048;-78
2023/09/24 07:33:55;;;;;;;13.50;6.03;;;13.20;99.90;;;;;;5072729;28;20048;-78
2023/09/24 07:36:21;;;;;;;13.07;6.90;;;13.30;99.90;;;;;;5072346;28;20105;-78
2023/09/24 07:38:49;;;;;;;13.45;5.97;;;13.40;99.90;;;;;;5073550;28;20399;-78
2023/09/24 07:41:15;;;;;;;10.55;5.25;;;13.40;99.90;;;;;;5073777;28;20040;-78
2023/09/24 07:43:44;;;;;;;13.40;5.97;;;13.50;99.90;;;;;;5072659;28;20052;-78
2023/09/24 07:46:14;;;;;;;11.52;5.43;;;13.60;99.90;;;;;;5072461;28;20067;-77
2023/09/24 07:48:42;;;;;;;12.23;5.35;;;13.70;99.90;;;;;;5072426;28;20496;-78
2023/09/24 07:51:08;;;;;;;11.45;4.53;;;13.80;99.90;;;;;;5072144;28;20055;-78
2023/09/24 07:53:33;;;;;;;14.70;5.43;;;13.80;99.90;;;;;;5072079;28;20044;-78
2023/09/24 07:56:07;;;;;;;10.77;4.40;;;13.90;99.90;;;;;;5071981;28;20044;-78
2023/09/24 07:58:37;;;;;;;9.57;4.60;;;13.90;99.90;;;;;;5072404;28;20049;-78
2023/09/24 08:01:05;;;;;;;12.55;5.00;;;14.00;99.90;;;;;;5072232;28;20550;-78
2023/09/24 08:03:31;;;;;;;11.43;5.25;;;14.10;99.90;;;;;;5073581;28;20120;-79
2023/09/24 08:05:57;;;;;;;12.15;5.10;;;14.10;99.90;;;;;;5071876;28;20044;-78
2023/09/24 08:08:24;;;;;;;10.60;5.18;;;14.20;99.90;;;;;;5072263;28;20052;-78
2023/09/24 08:10:50;;;;;;;10.80;5.32;;;14.20;99.90;;;;;;5071864;28;20090;-78
2023/09/24 08:13:20;;;;;;;9.88;4.85;;;14.30;99.90;;;;;;5071312;28;20044;-78
2023/09/24 08:15:55;;;;;;;9.48;4.30;;;14.40;99.90;;;;;;5071929;28;20044;-78
2023/09/24 08:18:20;;;;;;;12.73;4.60;;;14.50;99.90;;;;;;5071679;28;20048;-78
2023/09/24 08:20:49;;;;;;;10.88;4.32;;;14.60;99.90;;;;;;5071896;28;20077;-78
2023/09/24 08:23:18;;;;;;;9.63;4.40;;;14.60;99.90;;;;;;5071689;28;20045;-78
2023/09/24 08:25:44;;;;;;;9.63;4.35;;;14.70;99.90;;;;;;5071785;28;20063;-78
2023/09/24 08:28:10;;;;;;;11.20;4.40;;;14.70;99.90;;;;;;5072898;28;20040;-77
2023/09/24 08:30:36;;;;;;;10.68;3.95;;;14.80;99.90;;;;;;5073167;28;20040;-78
2023/09/24 08:33:04;;;;;;;11.10;4.22;;;14.80;99.90;;;;;;5071949;28;20040;-78
2023/09/24 08:35:30;;;;;;;12.05;3.90;;;14.90;99.90;;;;;;5071768;28;20095;-78
2023/09/24 08:37:56;;;;;;;14.23;4.70;;;15.00;99.90;;;;;;5071697;28;20051;-76
2023/09/24 08:40:21;;;;;;;10.13;4.50;;;15.10;99.90;;;;;;5071575;28;20131;-77
2023/09/24 08:42:49;;;;;;;9.23;4.30;;;15.10;99.90;;;;;;5071495;28;20138;-77
2023/09/24 08:45:20;;;;;;;9.80;4.18;;;15.20;99.90;;;;;;5071607;28;20041;-77
2023/09/24 08:47:47;;;;;;;11.00;4.53;;;15.20;99.90;;;;;;5071748;28;20131;-77
2023/09/24 08:50:14;;;;;;;10.50;3.65;;;15.30;99.90;;;;;;5071705;28;20120;-77
2023/09/24 08:52:42;;;;;;;10.38;4.25;;;15.30;99.90;;;;;;5071475;28;20040;-78
2023/09/24 08:55:16;;;;;;;7.95;4.10;;;15.40;99.90;;;;;;5071734;28;20056;-77
2023/09/24 08:57:45;;;;;;;8.38;3.55;;;15.50;99.90;;;;;;5071404;28;20056;-77
2023/09/24 09:00:14;;;;;;;11.82;3.80;;;15.50;99.90;;;;;;5071422;28;20087;-78
2023/09/24 09:02:41;;;;;;;10.80;3.78;;;15.60;99.90;;;;;;5071445;28;20132;-77
2023/09/24 09:05:11;;;;;;;8.10;3.58;;;15.60;99.90;;;;;;5071642;28;20067;-77
2023/09/24 09:07:52;;;;;;;8.50;3.67;;;15.70;99.90;;;;;;5071665;28;20059;-77
2023/09/24 09:10:23;;;;;;;9.13;3.30;;;15.80;99.90;;;;;;5072557;28;20398;-77
2023/09/24 09:12:50;;;;;;;8.93;3.33;;;15.80;99.90;;;;;;5072786;28;20132;-77
2023/09/24 09:15:17;;;;;;;6.60;2.90;;;15.90;99.90;;;;;;5071238;28;20044;-77
2023/09/24 09:17:42;;;;;;;9.23;2.95;;;16.00;99.90;;;;;;5072593;28;20052;-77
2023/09/24 09:20:08;;;;;;;7.68;2.83;;;16.00;99.90;;;;;;5071275;28;20060;-77
2023/09/24 09:22:35;;;;;;;9.23;3.15;;;16.10;99.90;;;;;;5071459;28;20055;-77
2023/09/24 09:25:09;;;;;;;8.73;2.85;;;16.10;99.90;;;;;;5072144;28;20480;-77
2023/09/24 09:27:44;;;;;;;7.50;3.15;;;16.20;99.90;;;;;;5074701;28;20182;-77
2023/09/24 09:30:20;;;;;;;8.15;2.92;;;16.30;99.90;;;;;;5074640;28;20044;-78
2023/09/24 09:32:47;;;;;;;10.75;2.67;;;16.40;99.90;;;;;;5075131;28;20067;-76
2023/09/24 09:35:14;;;;;;;7.28;2.63;;;16.50;99.90;;;;;;5074861;28;20056;-76
2023/09/24 09:37:41;;;;;;;7.60;2.40;;;16.50;99.90;;;;;;5074521;28;20483;-77
2023/09/24 09:40:09;;;;;;;8.40;2.63;;;16.60;99.90;;;;;;5075684;28;20410;-76
2023/09/24 09:42:36;;;;;;;7.07;2.35;;;16.70;99.90;;;;;;5074463;28;20404;-77
2023/09/24 09:45:07;;;;;;;7.03;2.35;;;16.70;99.90;;;;;;5074537;28;20466;-77
2023/09/24 09:47:37;;;;;;;8.32;2.67;;;16.70;99.90;;;;;;5074773;28;20040;-77
2023/09/24 09:50:04;;;;;;;6.72;2.50;;;16.80;99.90;;;;;;5074342;28;20507;-77
2023/09/24 09:52:38;;;;;;;7.45;2.50;;;16.80;99.90;;;;;;5074319;28;20051;-77
2023/09/24 09:55:06;;;;;;;13.23;2.88;;;16.80;99.90;;;;;;5075604;28;20487;-77
2023/09/24 09:57:33;;;;;;;8.60;2.58;;;17.00;99.90;;;;;;5074212;28;20041;-77
2023/09/24 10:00:00;;;;;;;7.03;2.53;;;17.00;99.90;;;;;;5074354;28;20555;-77
2023/09/24 10:02:29;;;;;;;7.25;2.25;;;16.90;99.90;;;;;;5074211;28;20044;-76
2023/09/24 10:04:57;;;;;;;6.53;2.40;;;17.00;99.90;;;;;;5075382;28;20056;-76
2023/09/24 10:07:24;;;;;;;10.60;2.45;;;17.10;99.90;;;;;;5074281;28;20044;-77
2023/09/24 10:09:50;;;;;;;4.28;1.98;;;17.10;99.90;;;;;;5073983;28;20056;-75
2023/09/24 10:12:36;;;;;;;7.43;2.20;;;17.30;99.90;;;;;;5075120;28;20360;-76
2023/09/24 10:15:26;;;;;;;6.25;2.10;;;17.20;99.90;;;;;;5074025;28;20499;-76
2023/09/24 10:18:07;;;;;;;7.63;1.90;;;17.30;99.90;;;;;;5073680;28;20098;-75
2023/09/24 10:20:53;;;;;;;9.02;1.77;;;17.30;99.90;;;;;;5073961;28;20059;-76
2023/09/24 10:23:31;;;;;;;5.85;2.05;;;17.40;99.90;;;;;;5074048;28;20080;-76
2023/09/24 10:26:02;;;;;;;7.68;2.08;;;17.50;99.90;;;;;;5073910;28;20445;-76
2023/09/24 10:28:51;;;;;;;7.30;1.90;;;17.50;99.90;;;;;;5073686;28;20404;-76
2023/09/24 10:31:21;;;;;;;6.15;2.00;;;17.60;99.90;;;;;;5063130;28;20063;-76
2023/09/24 10:33:53;;;;;;;5.30;1.65;;;17.60;99.90;;;;;;5073645;28;20048;-76
2023/09/24 10:36:37;;;;;;;5.75;1.77;;;17.60;99.90;;;;;;5073335;28;20048;-76
2023/09/24 10:39:08;;;;;;;7.38;2.58;;;17.60;99.90;;;;;;5073379;28;20055;-76
2023/09/24 10:41:35;;;;;;;6.78;1.92;;;17.60;99.90;;;;;;5073409;28;20131;-76
2023/09/24 10:44:26;;;;;;;7.00;2.35;;;17.80;99.90;;;;;;5074803;28;20155;-76
2023/09/24 10:46:52;;;;;;;8.68;2.20;;;17.80;99.90;;;;;;5073184;28;20178;-76
2023/09/24 10:49:21;;;;;;;7.88;2.42;;;17.90;99.90;;;;;;5073145;28;20083;-76
2023/09/24 10:51:47;;;;;;;7.32;2.30;;;17.80;99.90;;;;;;5073036;28;20055;-76
2023/09/24 10:54:16;;;;;;;5.13;2.05;;;17.90;99.90;;;;;;5074355;28;20490;-76
2023/09/24 10:56:49;;;;;;;5.38;1.42;;;18.00;99.90;;;;;;5073155;28;20115;-76
2023/09/24 10:59:15;;;;;;;7.80;2.60;;;18.00;99.90;;;;;;5073307;28;20048;-76
2023/09/24 11:01:42;;;;;;;7.30;2.10;;;18.10;99.90;;;;;;5073158;28;20059;-76
2023/09/24 11:04:11;;;;;;;8.02;2.25;;;18.20;99.90;;;;;;5073037;28;20040;-76
2023/09/24 11:06:37;;;;;;;6.90;2.30;;;18.20;99.90;;;;;;5072865;28;20041;-76
2023/09/24 11:09:22;;;;;;;6.97;2.20;;;18.20;99.90;;;;;;5073109;28;20051;-76
2023/09/24 11:11:48;;;;;;;6.18;2.00;;;18.20;99.90;;;;;;5072860;28;20123;-76
2023/09/24 11:14:22;;;;;;;7.55;2.88;;;18.20;99.90;;;;;;5072699;28;20178;-78
2023/09/24 11:16:53;;;;;;;8.13;2.35;;;18.10;99.90;;;;;;5072683;28;20488;-78
2023/09/24 11:19:41;;;;;;;6.03;2.30;;;18.10;99.90;;;;;;5072464;28;20063;-77
2023/09/24 11:22:22;;;;;;;5.65;1.92;;;18.20;99.90;;;;;;5072966;28;20496;-76
2023/09/24 11:25:07;;;;;;;8.82;2.40;;;18.20;99.90;;;;;;5072601;28;20048;-76
2023/09/24 11:27:47;;;;;;;6.00;1.85;;;18.10;99.90;;;;;;5072580;28;20404;-76
2023/09/24 11:30:15;;;;;;;5.45;1.85;;;18.10;99.90;;;;;;5072346;28;20396;-78
2023/09/24 11:32:42;;;;;;;7.05;1.85;;;18.20;99.90;;;;;;5073762;28;20480;-77
2023/09/24 11:35:13;;;;;;;6.60;1.80;;;18.10;99.90;;;;;;5072336;28;20045;-77
2023/09/24 11:37:54;;;;;;;6.75;2.00;;;18.10;99.90;;;;;;5072446;28;20063;-78
2023/09/24 11:40:33;;;;;;;7.97;2.15;;;18.00;99.90;;;;;;5072165;28;20044;-78
2023/09/24 11:43:08;;;;;;;4.90;1.90;;;17.90;99.90;;;;;;5072602;28;20377;-76
2023/09/24 11:45:55;;;;;;;5.95;1.63;;;17.90;99.90;;;;;;5072423;28;20464;-77
2023/09/24 11:48:26;;;;;;;5.75;1.83;;;17.90;99.90;;;;;;5074186;28;20044;-77
2023/09/24 11:50:57;;;;;;;6.22;2.17;;;18.00;99.90;;;;;;5082645;28;20055;-76
2023/09/24 11:53:25;;;;;;;5.15;1.75;;;18.10;99.90;;;;;;5072216;28;20078;-76
2023/09/24 11:55:53;;;;;;;5.40;1.75;;;18.20;99.90;;;;;;5072388;28;20495;-77
2023/09/24 11:58:20;;;;;;;9.23;1.80;;;18.30;99.90;;;;;;5072116;28;20045;-76
2023/09/24 12:00:46;;;;;;;6.40;2.10;;;18.40;99.90;;;;;;5073192;28;20528;-77
2023/09/24 12:03:18;;;;;;;6.05;1.85;;;18.40;99.90;;;;;;5072130;28;20040;-77
2023/09/24 12:05:44;;;;;;;6.60;2.03;;;18.40;99.90;;;;;;5073209;28;20452;-77
2023/09/24 12:08:10;;;;;;;5.10;2.05;;;18.50;99.90;;;;;;5071934;28;20503;-76
2023/09/24 12:10:38;;;;;;;4.60;1.65;;;18.60;99.90;;;;;;5071985;28;20044;-76
2023/09/24 12:13:04;;;;;;;8.13;2.30;;;18.60;99.90;;;;;;5072122;28;20040;-75
2023/09/24 12:15:34;;;;;;;7.13;2.17;;;18.60;99.90;;;;;;5071834;28;20093;-77
2023/09/24 12:18:04;;;;;;;6.20;2.00;;;18.70;99.90;;;;;;5071898;28;20128;-77
2023/09/24 12:20:34;;;;;;;6.05;2.10;;;18.80;99.90;;;;;;5072062;28;20123;-76
2023/09/24 12:23:01;;;;;;;6.05;2.13;;;18.90;99.90;;;;;;5072067;28;20043;-76
2023/09/24 12:25:28;;;;;;;6.93;1.80;;;18.90;99.90;;;;;;5071697;28;20519;-76
2023/09/24 12:27:57;;;;;;;5.30;2.05;;;18.80;99.90;;;;;;5071769;28;20041;-76
2023/09/24 12:30:23;;;;;;;7.13;2.35;;;18.60;99.90;;;;;;5071676;28;20059;-77
2023/09/24 12:32:48;;;;;;;8.68;2.58;;;18.50;99.90;;;;;;5071785;28;20476;-76
2023/09/24 12:35:14;;;;;;;4.63;1.60;;;18.50;99.90;;;;;;5070673;28;20056;-76
2023/09/24 12:37:41;;;;;;;7.65;2.42;;;18.50;99.90;;;;;;5071917;28;20488;-76
2023/09/24 12:40:09;;;;;;;8.75;2.35;;;18.40;99.90;;;;;;5071647;28;20055;-77
2023/09/24 12:42:36;;;;;;;7.53;1.80;;;18.50;99.90;;;;;;5073125;28;20127;-76
2023/09/24 12:45:03;;;;;;;7.03;1.75;;;18.60;99.90;;;;;;5071535;28;20048;-76
2023/09/24 12:47:31;;;;;;;4.93;1.60;;;18.60;99.90;;;;;;5071675;28;20045;-75
2023/09/24 12:49:57;;;;;;;6.88;1.60;;;18.60;99.90;;;;;;5072858;28;20055;-75